createdAt,value
2019-04-14T00:00:53.279Z,48.36
2019-04-14T00:03:36.849Z,48.35
2019-04-14T00:06:11.863Z,48.34
2019-04-14T00:08:47.982Z,48.34
2019-04-14T00:11:19.077Z,48.36
2019-04-14T00:13:50.210Z,48.32
2019-04-14T00:16:20.718Z,48.32
2019-04-14T00:18:51.284Z,48.33
2019-04-14T00:21:23.641Z,48.33
2019-04-14T00:23:54.442Z,48.32
2019-04-14T00:26:27.429Z,48.30
2019-04-14T00:29:00.944Z,48.28
2019-04-14T00:31:32.475Z,48.26
2019-04-14T00:34:07.286Z,48.26
2019-04-14T00:36:50.865Z,48.25
2019-04-14T00:39:31.543Z,48.26
2019-04-14T00:42:21.230Z,48.25
2019-04-14T00:44:58.286Z,48.23
2019-04-14T00:47:39.222Z,48.23
2019-04-14T00:50:08.285Z,48.23
2019-04-14T00:52:39.430Z,48.24
2019-04-14T00:55:09.869Z,48.25
2019-04-14T00:57:40.294Z,48.25
2019-04-14T01:00:15.769Z,48.29
2019-04-14T01:02:45.095Z,48.29
2019-04-14T01:05:17.438Z,48.27
2019-04-14T01:07:50.088Z,48.32
2019-04-14T01:10:23.589Z,48.31
2019-04-14T01:12:54.346Z,48.32
2019-04-14T01:15:26.717Z,48.35
2019-04-14T01:17:57.206Z,48.35
2019-04-14T01:20:30.185Z,48.36
2019-04-14T01:23:02.092Z,48.38
2019-04-14T01:25:32.507Z,48.40
2019-04-14T01:28:02.858Z,48.41
2019-04-14T01:30:33.598Z,48.39
2019-04-14T01:33:05.469Z,48.39
2019-04-14T01:35:36.364Z,48.42
2019-04-14T01:38:08.035Z,48.44
2019-04-14T01:40:38.844Z,48.45
2019-04-14T01:43:10.295Z,48.46
2019-04-14T01:45:40.672Z,48.48
2019-04-14T01:48:14.837Z,48.47
2019-04-14T01:51:07.601Z,48.48
2019-04-14T01:53:57.484Z,48.51
2019-04-14T01:56:47.159Z,48.56
2019-04-14T01:59:20.481Z,48.56
2019-04-14T02:01:54.960Z,48.57
2019-04-14T02:04:26.790Z,48.59
2019-04-14T02:06:57.446Z,48.59
2019-04-14T02:09:27.888Z,48.64
2019-04-14T02:12:03.754Z,48.66
2019-04-14T02:14:34.654Z,48.67
2019-04-14T02:17:06.445Z,48.69
2019-04-14T02:19:39.267Z,48.69
2019-04-14T02:22:09.845Z,48.74
2019-04-14T02:24:41.627Z,48.74
2019-04-14T02:27:12.272Z,48.76
2019-04-14T02:29:42.967Z,48.80
2019-04-14T02:32:42.499Z,48.80
2019-04-14T02:35:13.247Z,48.83
2019-04-14T02:37:49.121Z,48.86
2019-04-14T02:40:18.158Z,48.86
2019-04-14T02:42:46.499Z,48.87
2019-04-14T02:45:28.252Z,48.92
2019-04-14T02:48:03.321Z,48.94
2019-04-14T02:50:26.308Z,48.92
2019-04-14T02:55:37.300Z,48.95
2019-04-14T02:58:16.209Z,48.97
2019-04-14T03:00:42.105Z,48.96
2019-04-14T03:03:16.875Z,49.01
2019-04-14T03:08:25.655Z,49.05
2019-04-14T03:10:55.851Z,49.05
2019-04-14T03:15:55.854Z,49.10
2019-04-14T03:18:52.694Z,49.13
2019-04-14T03:24:42.223Z,49.14
2019-04-14T03:27:48.243Z,49.17
2019-04-14T03:30:36.521Z,49.17
2019-04-14T03:37:54.076Z,49.23
2019-04-14T03:40:25.897Z,49.28
2019-04-14T03:43:04.066Z,49.27
2019-04-14T03:45:36.411Z,49.28
2019-04-14T03:48:37.583Z,49.30
2019-04-14T03:50:36.826Z,49.33
2019-04-14T03:55:55.339Z,49.37
2019-04-14T03:58:22.667Z,49.40
2019-04-14T04:00:53.347Z,49.41
2019-04-14T04:03:24.062Z,49.44
2019-04-14T04:05:54.416Z,49.47
2019-04-14T04:08:26.945Z,49.47
2019-04-14T04:10:59.794Z,49.48
2019-04-14T04:13:30.356Z,49.54
2019-04-14T04:16:29.154Z,49.56
2019-04-14T04:19:10.501Z,49.57
2019-04-14T04:22:02.165Z,49.59
2019-04-14T04:24:38.889Z,49.63
2019-04-14T04:27:24.393Z,49.67
2019-04-14T04:30:12.269Z,49.69
2019-04-14T04:33:08.709Z,49.72
2019-04-14T04:36:05.623Z,49.74
2019-04-14T04:38:59.700Z,49.76
2019-04-14T04:41:29.828Z,49.81
2019-04-14T04:44:00.706Z,49.86
2019-04-14T04:46:31.524Z,49.87
2019-04-14T04:49:09.601Z,50.09
2019-04-14T04:51:34.087Z,50.09
2019-04-14T04:54:04.441Z,49.94
2019-04-14T04:56:34.768Z,49.97
2019-04-14T04:59:05.467Z,50.01
2019-04-14T05:01:38.597Z,49.91
2019-04-14T05:04:09.103Z,49.91
2019-04-14T05:07:16.546Z,50.29
2019-04-14T05:10:21.734Z,50.29
2019-04-14T05:13:14.286Z,49.97
2019-04-14T05:15:48.811Z,50.23
2019-04-14T05:18:24.721Z,50.26
2019-04-14T05:20:55.460Z,50.36
2019-04-14T05:23:25.989Z,50.36
2019-04-14T05:25:56.693Z,50.41
2019-04-14T05:28:27.101Z,50.47
2019-04-14T05:30:57.368Z,50.51
2019-04-14T05:33:29.412Z,50.53
2019-04-14T05:35:59.929Z,50.57
2019-04-14T05:38:32.167Z,50.61
2019-04-14T05:41:04.726Z,50.62
2019-04-14T05:43:43.478Z,50.69
2019-04-14T05:46:07.778Z,50.73
2019-04-14T05:48:38.295Z,50.77
2019-04-14T05:51:08.857Z,50.79
2019-04-14T05:53:39.545Z,50.83
2019-04-14T05:56:14.364Z,50.88
2019-04-14T05:58:45.177Z,50.93
2019-04-14T06:01:16.061Z,50.98
2019-04-14T06:03:49.586Z,51.04
2019-04-14T06:06:19.957Z,51.07
2019-04-14T06:08:51.369Z,51.16
2019-04-14T06:11:23.949Z,51.22
2019-04-14T06:13:54.308Z,51.31
2019-04-14T06:16:24.632Z,51.48
2019-04-14T06:18:55.143Z,51.53
2019-04-14T06:21:29.007Z,51.53
2019-04-14T06:23:59.432Z,51.55
2019-04-14T06:26:30.102Z,51.59
2019-04-14T06:29:00.425Z,51.64
2019-04-14T06:31:45.409Z,51.70
2019-04-14T06:34:27.951Z,51.72
2019-04-14T06:37:20.893Z,51.74
2019-04-14T06:39:52.509Z,51.79
2019-04-14T06:42:22.939Z,51.88
2019-04-14T06:44:53.241Z,51.95
2019-04-14T06:47:24.821Z,51.98
2019-04-14T06:49:57.703Z,52.00
2019-04-14T06:52:27.666Z,52.06
2019-04-14T06:54:58.033Z,52.10
2019-04-14T06:57:28.323Z,52.11
2019-04-14T07:00:00.321Z,52.16
2019-04-14T07:02:30.791Z,52.19
2019-04-14T07:05:02.230Z,52.25
2019-04-14T07:07:35.394Z,52.25
2019-04-14T07:10:07.114Z,52.31
2019-04-14T07:12:37.470Z,52.35
2019-04-14T07:15:10.657Z,52.41
2019-04-14T07:17:40.984Z,52.43
2019-04-14T07:20:11.661Z,52.43
2019-04-14T07:22:42.094Z,52.44
2019-04-14T07:25:12.411Z,52.51
2019-04-14T07:27:42.719Z,52.57
2019-04-14T07:30:47.376Z,52.59
2019-04-14T07:33:43.171Z,52.62
2019-04-14T07:36:41.124Z,52.64
2019-04-14T07:39:29.779Z,52.66
2019-04-14T07:42:10.340Z,52.72
2019-04-14T07:44:58.940Z,52.79
2019-04-14T07:47:48.282Z,52.83
2019-04-14T07:50:30.725Z,52.86
2019-04-14T07:53:19.357Z,52.86
2019-04-14T07:56:01.419Z,52.88
2019-04-14T07:58:55.388Z,52.96
2019-04-14T08:01:35.532Z,53.02
2019-04-14T08:04:14.595Z,53.08
2019-04-14T08:06:52.407Z,53.10
2019-04-14T08:09:22.860Z,53.12
2019-04-14T08:11:56.649Z,53.17
2019-04-14T08:14:27.060Z,53.19
2019-04-14T08:16:59.131Z,53.26
2019-04-14T08:19:29.524Z,53.28
2019-04-14T08:22:05.538Z,53.32
2019-04-14T08:24:37.332Z,53.39
2019-04-14T08:27:07.825Z,53.47
2019-04-14T08:29:39.353Z,53.50
2019-04-14T08:32:11.712Z,53.59
2019-04-14T08:34:42.033Z,53.64
2019-04-14T08:37:12.558Z,53.63
2019-04-14T08:39:44.140Z,53.68
2019-04-14T08:42:33.968Z,53.73
2019-04-14T08:45:13.103Z,53.80
2019-04-14T08:47:56.568Z,53.89
2019-04-14T08:50:49.227Z,53.93
2019-04-14T08:53:34.148Z,53.91
2019-04-14T08:56:17.142Z,53.91
2019-04-14T08:58:56.665Z,53.95
2019-04-14T09:01:41.256Z,53.98
2019-04-14T09:04:28.949Z,53.96
2019-04-14T09:07:19.012Z,53.97
2019-04-14T09:09:58.101Z,53.92
2019-04-14T09:12:32.109Z,53.90
2019-04-14T09:15:05.314Z,53.92
2019-04-14T09:17:37.175Z,53.98
2019-04-14T09:20:08.445Z,53.97
2019-04-14T09:22:38.841Z,53.92
2019-04-14T09:25:09.164Z,53.95
2019-04-14T09:27:39.458Z,53.90
2019-04-14T09:30:10.386Z,53.85
2019-04-14T09:32:40.724Z,53.78
2019-04-14T09:35:11.030Z,53.73
2019-04-14T09:37:41.844Z,53.68
2019-04-14T09:40:12.154Z,53.64
2019-04-14T09:42:46.546Z,53.61
2019-04-14T09:45:16.924Z,53.54
2019-04-14T09:47:48.072Z,53.55
2019-04-14T09:50:19.690Z,53.52
2019-04-14T09:52:50.385Z,53.48
2019-04-14T09:55:23.400Z,53.47
2019-04-14T09:57:52.852Z,53.45
2019-04-14T10:00:23.437Z,53.45
2019-04-14T10:02:59.697Z,53.40
2019-04-14T10:05:30.059Z,53.39
2019-04-14T10:08:00.371Z,53.40
2019-04-14T10:10:30.700Z,53.37
2019-04-14T10:13:02.637Z,53.37
2019-04-14T10:15:33.574Z,53.45
2019-04-14T10:18:04.165Z,53.43
2019-04-14T10:20:34.678Z,53.38
2019-04-14T10:23:05.265Z,53.41
2019-04-14T10:25:36.338Z,53.41
2019-04-14T10:28:06.791Z,53.41
2019-04-14T10:30:37.082Z,53.43
2019-04-14T10:33:08.856Z,53.42
2019-04-14T10:35:41.231Z,53.36
2019-04-14T10:38:11.651Z,53.36
2019-04-14T10:40:42.332Z,53.34
2019-04-14T10:43:12.701Z,53.31
2019-04-14T10:45:42.999Z,53.29
2019-04-14T10:48:13.347Z,53.35
2019-04-14T10:50:43.606Z,53.35
2019-04-14T10:53:14.241Z,53.36
2019-04-14T10:55:44.587Z,53.36
2019-04-14T10:58:16.943Z,53.31
2019-04-14T11:00:47.950Z,53.31
2019-04-14T11:03:18.296Z,53.29
2019-04-14T11:05:57.891Z,53.26
2019-04-14T11:08:28.754Z,53.24
2019-04-14T11:10:59.072Z,53.18
2019-04-14T11:13:29.375Z,53.17
2019-04-14T11:15:59.822Z,53.18
2019-04-14T11:18:30.102Z,53.18
2019-04-14T11:21:02.520Z,53.11
2019-04-14T11:23:33.146Z,53.16
2019-04-14T11:26:04.679Z,53.18
2019-04-14T11:28:34.993Z,53.20
2019-04-14T11:31:06.123Z,53.16
2019-04-14T11:33:56.562Z,53.17
2019-04-14T11:36:46.596Z,53.13
2019-04-14T11:39:17.573Z,53.12
2019-04-14T11:41:49.970Z,53.17
2019-04-14T11:44:20.438Z,53.12
2019-04-14T11:46:54.061Z,53.11
2019-04-14T11:49:24.388Z,53.08
2019-04-14T11:51:55.843Z,53.08
2019-04-14T11:54:26.405Z,53.10
2019-04-14T11:57:00.446Z,53.07
2019-04-14T11:59:42.807Z,53.01
2019-04-14T12:02:28.626Z,52.98
2019-04-14T12:05:05.637Z,52.97
2019-04-14T12:07:58.200Z,52.93
2019-04-14T12:10:30.864Z,52.84
2019-04-14T12:13:01.265Z,52.75
2019-04-14T12:15:34.333Z,52.76
2019-04-14T12:18:04.621Z,52.75
2019-04-14T12:20:38.969Z,52.77
2019-04-14T12:23:16.035Z,52.76
2019-04-14T12:25:46.306Z,52.74
2019-04-14T12:28:19.407Z,52.75
2019-04-14T12:30:53.242Z,52.73
2019-04-14T12:33:24.567Z,52.73
2019-04-14T12:35:54.890Z,52.69
2019-04-14T12:38:25.355Z,52.63
2019-04-14T12:40:57.807Z,52.63
2019-04-14T12:43:36.956Z,52.62
2019-04-14T12:46:26.279Z,52.63
2019-04-14T12:49:13.782Z,52.60
2019-04-14T12:52:03.308Z,52.59
2019-04-14T12:54:35.629Z,52.57
2019-04-14T12:57:06.011Z,52.58
2019-04-14T12:59:37.034Z,52.56
2019-04-14T13:02:29.633Z,52.57
2019-04-14T13:05:00.249Z,52.56
2019-04-14T13:07:31.258Z,52.49
2019-04-14T13:10:03.678Z,52.44
2019-04-14T13:12:34.041Z,52.51
2019-04-14T13:15:04.787Z,52.46
2019-04-14T13:17:36.199Z,52.50
2019-04-14T13:20:08.515Z,52.46
2019-04-14T13:22:38.943Z,52.43
2019-04-14T13:25:12.281Z,52.43
2019-04-14T13:27:43.542Z,52.37
2019-04-14T13:30:19.718Z,52.29
2019-04-14T13:32:51.623Z,52.29
2019-04-14T13:35:22.312Z,52.30
2019-04-14T13:37:53.946Z,52.29
2019-04-14T13:40:24.358Z,52.36
2019-04-14T13:42:55.590Z,52.56
2019-04-14T13:45:26.065Z,52.59
2019-04-14T13:48:00.382Z,52.71
2019-04-14T13:50:31.374Z,53.01
2019-04-14T13:53:06.616Z,53.01
2019-04-14T13:55:40.001Z,52.85
2019-04-14T13:58:13.452Z,52.69
2019-04-14T14:00:46.070Z,52.62
2019-04-14T14:03:16.545Z,52.55
2019-04-14T14:05:47.095Z,52.39
2019-04-14T14:08:17.408Z,52.24
2019-04-14T14:10:48.260Z,52.08
2019-04-14T14:13:29.457Z,51.96
2019-04-14T14:16:23.532Z,51.86
2019-04-14T14:19:01.044Z,51.78
2019-04-14T14:21:50.294Z,51.70
2019-04-14T14:24:38.171Z,51.67
2019-04-14T14:27:09.716Z,51.60
2019-04-14T14:29:40.687Z,51.55
2019-04-14T14:32:22.921Z,51.51
2019-04-14T14:34:54.067Z,51.46
2019-04-14T14:37:24.465Z,51.49
2019-04-14T14:39:55.230Z,51.48
2019-04-14T14:42:27.747Z,51.59
2019-04-14T14:45:26.721Z,51.61
2019-04-14T14:48:18.183Z,51.54
2019-04-14T14:51:20.298Z,51.52
2019-04-14T14:53:51.021Z,51.57
2019-04-14T14:56:22.018Z,51.69
2019-04-14T14:58:52.871Z,51.73
2019-04-14T15:01:24.726Z,51.78
2019-04-14T15:03:55.129Z,51.76
2019-04-14T15:06:26.967Z,51.72
2019-04-14T15:08:59.111Z,51.77
2019-04-14T15:11:29.826Z,51.75
2019-04-14T15:14:00.258Z,51.67
2019-04-14T15:16:30.666Z,51.57
2019-04-14T15:19:01.044Z,51.52
2019-04-14T15:21:32.721Z,51.43
2019-04-14T15:24:03.065Z,51.39
2019-04-14T15:26:34.977Z,51.32
2019-04-14T15:29:12.013Z,51.07
2019-04-14T15:31:42.380Z,50.95
2019-04-14T15:34:12.769Z,50.88
2019-04-14T15:36:43.209Z,50.77
2019-04-14T15:39:13.549Z,50.77
2019-04-14T15:41:44.658Z,50.76
2019-04-14T15:44:20.353Z,50.75
2019-04-14T15:46:58.521Z,50.64
2019-04-14T15:49:30.030Z,50.54
2019-04-14T15:52:00.369Z,50.48
2019-04-14T15:54:30.799Z,50.37
2019-04-14T15:57:22.092Z,50.32
2019-04-14T16:00:15.594Z,50.25
2019-04-14T16:03:11.524Z,50.22
2019-04-14T16:05:49.779Z,50.13
2019-04-14T16:08:29.171Z,50.02
2019-04-14T16:11:05.010Z,50.00
2019-04-14T16:13:54.624Z,49.94
2019-04-14T16:16:43.892Z,49.85
2019-04-14T16:19:33.207Z,49.84
2019-04-14T16:22:04.617Z,49.77
2019-04-14T16:24:35.319Z,49.60
2019-04-14T16:27:25.779Z,49.50
2019-04-14T16:30:15.190Z,49.41
2019-04-14T16:33:07.067Z,49.31
2019-04-14T16:35:38.181Z,49.26
2019-04-14T16:38:08.484Z,49.17
2019-04-14T16:40:40.992Z,49.13
2019-04-14T16:43:12.893Z,49.08
2019-04-14T16:45:43.300Z,49.07
2019-04-14T16:48:15.655Z,48.99
2019-04-14T16:50:47.707Z,48.95
2019-04-14T16:53:43.119Z,48.91
2019-04-14T16:56:32.467Z,48.85
2019-04-14T16:59:06.406Z,48.80
2019-04-14T17:01:43.008Z,48.76
2019-04-14T17:04:13.405Z,48.72
2019-04-14T17:06:43.794Z,48.67
2019-04-14T17:09:14.652Z,48.62
2019-04-14T17:11:45.519Z,48.58
2019-04-14T17:14:25.533Z,48.52
2019-04-14T17:17:17.583Z,48.46
2019-04-14T17:19:57.312Z,48.42
2019-04-14T17:22:42.916Z,48.39
2019-04-14T17:25:42.777Z,48.35
2019-04-14T17:28:26.794Z,48.29
2019-04-14T17:31:21.930Z,48.25
2019-04-14T17:34:10.798Z,48.21
2019-04-14T17:36:50.954Z,48.15
2019-04-14T17:39:37.766Z,48.12
2019-04-14T17:42:36.255Z,48.05
2019-04-14T17:45:29.126Z,48.04
2019-04-14T17:48:27.454Z,47.95
2019-04-14T17:51:21.989Z,47.90
2019-04-14T17:54:04.588Z,47.86
2019-04-14T17:56:49.032Z,47.79
2019-04-14T17:59:38.694Z,47.74
2019-04-14T18:02:28.810Z,47.70
2019-04-14T18:05:06.307Z,47.63
2019-04-14T18:07:55.132Z,47.58
2019-04-14T18:10:40.991Z,47.49
2019-04-14T18:13:26.313Z,47.47
2019-04-14T18:16:10.969Z,47.44
2019-04-14T18:18:59.878Z,47.39
2019-04-14T18:21:30.611Z,47.35
2019-04-14T18:24:10.470Z,47.31
2019-04-14T18:26:40.838Z,47.26
2019-04-14T18:29:28.930Z,47.21
2019-04-14T18:32:14.116Z,47.15
2019-04-14T18:35:06.876Z,47.12
2019-04-14T18:37:56.294Z,47.04
2019-04-14T18:40:47.634Z,46.75
2019-04-14T18:43:37.532Z,46.75
2019-04-14T18:46:29.677Z,46.90
2019-04-14T18:49:19.695Z,46.86
2019-04-14T18:52:13.488Z,46.83
2019-04-14T18:55:00.822Z,46.99
2019-04-14T18:57:43.715Z,46.99
2019-04-14T19:00:27.825Z,46.68
2019-04-14T19:02:58.433Z,46.66
2019-04-14T19:05:29.067Z,46.60
2019-04-14T19:07:59.506Z,46.60
2019-04-14T19:10:29.845Z,46.55
2019-04-14T19:13:07.923Z,46.49
2019-04-14T19:16:07.447Z,46.46
2019-04-14T19:18:51.867Z,46.44
2019-04-14T19:21:27.263Z,46.42
2019-04-14T19:23:57.608Z,46.37
2019-04-14T19:26:28.298Z,46.34
2019-04-14T19:29:00.837Z,46.30
2019-04-14T19:31:32.587Z,46.29
2019-04-14T19:34:04.938Z,46.29
2019-04-14T19:36:36.513Z,46.28
2019-04-14T19:39:10.688Z,46.27
2019-04-14T19:41:41.015Z,46.24
2019-04-14T19:44:11.780Z,46.21
2019-04-14T19:46:42.180Z,46.20
2019-04-14T19:49:12.959Z,46.17
2019-04-14T19:51:44.724Z,46.17
2019-04-14T19:54:51.279Z,46.15
2019-04-14T19:57:21.664Z,46.12
2019-04-14T19:59:54.207Z,46.09
2019-04-14T20:02:30.263Z,46.08
2019-04-14T20:05:00.669Z,46.04
2019-04-14T20:07:33.995Z,46.03
2019-04-14T20:10:08.063Z,46.02
2019-04-14T20:12:38.752Z,46.00
2019-04-14T20:15:11.647Z,45.99
2019-04-14T20:17:57.897Z,45.96
2019-04-14T20:20:39.724Z,45.96
2019-04-14T20:23:20.266Z,45.92
2019-04-14T20:26:28.889Z,45.89
2019-04-14T20:29:08.468Z,45.86
2019-04-14T20:32:02.670Z,45.82
2019-04-14T20:34:33.186Z,45.81
2019-04-14T20:37:03.428Z,45.79
2019-04-14T20:39:34.483Z,45.78
2019-04-14T20:42:07.309Z,45.73
2019-04-14T20:44:38.701Z,45.75
2019-04-14T20:47:10.607Z,45.74
2019-04-14T20:49:40.951Z,45.70
2019-04-14T20:52:13.324Z,45.67
2019-04-14T20:54:45.233Z,45.65
2019-04-14T20:57:15.688Z,45.66
2019-04-14T20:59:46.032Z,45.63
2019-04-14T21:02:47.897Z,45.59
2019-04-14T21:05:51.482Z,45.60
2019-04-14T21:08:50.664Z,45.63
2019-04-14T21:11:30.465Z,45.62
2019-04-14T21:14:17.523Z,45.60
2019-04-14T21:17:04.628Z,45.58
2019-04-14T21:19:43.898Z,45.53
2019-04-14T21:22:39.338Z,45.50
2019-04-14T21:25:18.486Z,45.51
2019-04-14T21:28:12.474Z,45.54
2019-04-14T21:31:02.164Z,45.56
2019-04-14T21:33:48.047Z,45.49
2019-04-14T21:36:25.976Z,45.45
2019-04-14T21:39:08.005Z,45.42
2019-04-14T21:41:41.225Z,45.42
2019-04-14T21:44:12.044Z,45.40
2019-04-14T21:46:42.627Z,45.39
2019-04-14T21:49:13.059Z,45.41
2019-04-14T21:52:11.643Z,45.40
2019-04-14T21:54:44.483Z,45.38
2019-04-14T21:57:32.581Z,45.38
2019-04-14T22:00:43.451Z,45.38
2019-04-14T22:03:25.829Z,45.39
2019-04-14T22:06:05.245Z,45.38
2019-04-14T22:08:39.857Z,45.37
2019-04-14T22:11:25.068Z,45.36
2019-04-14T22:13:55.479Z,45.34
2019-04-14T22:16:27.288Z,45.34
2019-04-14T22:19:00.002Z,45.31
2019-04-14T22:21:30.304Z,45.34
2019-04-14T22:24:02.762Z,45.36
2019-04-14T22:26:33.142Z,45.35
2019-04-14T22:29:04.558Z,45.33
2019-04-14T22:31:34.919Z,45.31
2019-04-14T22:34:09.192Z,45.28
2019-04-14T22:36:39.506Z,45.30
2019-04-14T22:39:14.209Z,45.28
2019-04-14T22:41:46.310Z,45.28
2019-04-14T22:44:16.935Z,45.29
2019-04-14T22:46:47.393Z,45.33
2019-04-14T22:49:20.968Z,45.36
2019-04-14T22:51:54.002Z,45.38
2019-04-14T22:54:24.652Z,45.36
2019-04-14T22:56:54.946Z,45.35
2019-04-14T22:59:25.360Z,45.34
2019-04-14T23:02:04.047Z,45.31
2019-04-14T23:05:02.262Z,45.30
2019-04-14T23:07:51.637Z,45.28
2019-04-14T23:10:31.443Z,45.30
2019-04-14T23:13:13.184Z,45.31
2019-04-14T23:16:02.651Z,45.29
2019-04-14T23:18:43.577Z,45.34
2019-04-14T23:21:31.561Z,45.36
2019-04-14T23:24:29.972Z,45.36
2019-04-14T23:27:00.451Z,45.32
2019-04-14T23:29:31.241Z,45.29
2019-04-14T23:32:01.576Z,45.27
2019-04-14T23:34:31.923Z,45.27
2019-04-14T23:37:03.450Z,45.26
2019-04-14T23:39:36.470Z,45.25
2019-04-14T23:42:06.889Z,45.25
2019-04-14T23:44:38.191Z,45.24
2019-04-14T23:47:08.887Z,45.24
2019-04-14T23:49:40.732Z,45.24
2019-04-14T23:52:11.043Z,45.26
2019-04-14T23:54:41.354Z,45.31
2019-04-14T23:57:12.066Z,45.31
2019-04-14T23:59:42.374Z,45.31
